Time;durP1;ratioP1;P1;durP2;ratioP2;P2;SDS_P1;SDS_P2;PMS_P1;PMS_P2;Temp;Humidity;BMP_temperature;BMP_pressure;BME280_temperature;BME280_humidity;BME280_pressure;Samples;Min_cycle;Max_cycle;Signal;HPM_P1;HPM_P2
2023/03/12 00:01:00;;;;;;;2.45;1.48;;;;;;;-2.36;100.00;100256.22;6086318;29;20452;-85
2023/03/12 00:04:03;;;;;;;2.70;2.10;;;;;;;-2.40;100.00;100248.72;6087649;29;20051;-85
2023/03/12 00:07:07;;;;;;;2.55;1.85;;;;;;;-2.44;100.00;100247.13;6086492;29;20047;-85
2023/03/12 00:10:12;;;;;;;3.25;1.65;;;;;;;-2.48;100.00;100257.44;6061666;29;20047;-85
2023/03/12 00:13:14;;;;;;;3.78;1.73;;;;;;;-2.53;100.00;100261.81;6089176;29;20222;-85
2023/03/12 00:16:16;;;;;;;5.50;1.60;;;;;;;-2.58;100.00;100272.06;6088210;29;20075;-85
2023/03/12 00:19:18;;;;;;;3.95;1.75;;;;;;;-2.58;100.00;100268.69;6087556;29;20507;-85
2023/03/12 00:22:26;;;;;;;4.60;1.67;;;;;;;-2.54;100.00;100267.72;6093468;29;20048;-85
2023/03/12 00:25:27;;;;;;;3.53;1.67;;;;;;;-2.53;100.00;100277.00;6078364;29;20083;-85
2023/03/12 00:28:34;;;;;;;2.53;1.40;;;;;;;-2.56;100.00;100266.94;6096302;29;20056;-85
2023/03/12 00:31:35;;;;;;;2.40;1.40;;;;;;;-2.58;100.00;100266.16;6096601;29;20541;-85
2023/03/12 00:34:37;;;;;;;4.25;1.95;;;;;;;-2.55;100.00;100263.53;6078007;29;20597;-85
2023/03/12 00:37:39;;;;;;;5.38;1.88;;;;;;;-2.63;100.00;100264.59;6094254;29;20415;-85
2023/03/12 00:40:41;;;;;;;4.57;1.73;;;;;;;-2.70;100.00;100273.25;6096072;29;20146;-85
2023/03/12 00:43:43;;;;;;;2.78;1.73;;;;;;;-2.75;100.00;100271.72;6095252;29;20814;-85
2023/03/12 00:46:45;;;;;;;4.15;1.88;;;;;;;-2.83;100.00;100274.47;6097161;29;20191;-85
2023/03/12 00:49:46;;;;;;;2.05;1.63;;;;;;;-2.88;100.00;100271.22;6096445;29;20243;-85
2023/03/12 00:52:48;;;;;;;2.65;1.58;;;;;;;-2.95;100.00;100262.97;6078587;29;20525;-86
2023/03/12 00:55:50;;;;;;;3.25;1.50;;;;;;;-2.96;100.00;100260.47;6092978;29;20487;-85
2023/03/12 00:58:52;;;;;;;4.90;1.67;;;;;;;-2.92;100.00;100257.81;6095245;29;20044;-85
2023/03/12 01:01:53;;;;;;;3.33;1.63;;;;;;;-2.92;100.00;100262.88;6094427;29;20384;-85
2023/03/12 01:04:55;;;;;;;5.35;1.73;;;;;;;-2.91;100.00;100259.47;6094885;29;20082;-85
2023/03/12 01:07:58;;;;;;;3.65;1.98;;;;;;;-2.94;100.00;100264.63;6095729;29;20428;-85
2023/03/12 01:11:00;;;;;;;4.05;1.95;;;;;;;-2.98;100.00;100265.59;6099134;29;20069;-85
2023/03/12 01:14:04;;;;;;;5.18;2.65;;;;;;;-2.96;100.00;100266.34;6074987;29;20048;-85
2023/03/12 01:17:06;;;;;;;2.35;1.55;;;;;;;-2.95;100.00;100264.69;6093280;29;20134;-85
2023/03/12 01:20:09;;;;;;;3.33;1.80;;;;;;;-2.95;100.00;100262.97;6108446;29;20052;-85
2023/03/12 01:23:11;;;;;;;2.92;1.58;;;;;;;-2.96;100.00;100263.00;6094933;29;20063;-85
2023/03/12 01:26:13;;;;;;;2.90;1.50;;;;;;;-2.99;100.00;100256.31;6094561;29;20044;-85
2023/03/12 01:29:16;;;;;;;2.08;1.80;;;;;;;-2.95;100.00;100262.16;6095987;29;20470;-85
2023/03/12 01:32:19;;;;;;;4.32;2.22;;;;;;;-3.02;100.00;100256.41;6085374;29;20131;-85
2023/03/12 01:35:20;;;;;;;4.90;1.83;;;;;;;-2.96;100.00;100260.47;6092074;29;20048;-85
2023/03/12 01:38:23;;;;;;;3.13;2.13;;;;;;;-3.00;100.00;100254.66;6088865;29;20044;-85
2023/03/12 01:41:28;;;;;;;2.28;1.90;;;;;;;-3.06;100.00;100254.81;6090268;29;20055;-85
2023/03/12 01:44:30;;;;;;;5.18;2.00;;;;;;;-3.09;100.00;100255.75;6093058;29;20048;-85
2023/03/12 01:47:32;;;;;;;3.85;1.92;;;;;;;-3.11;100.00;100249.88;6091183;29;20604;-85
2023/03/12 01:50:38;;;;;;;4.32;1.80;;;;;;;-3.09;100.00;100249.84;6091694;29;20577;-85
2023/03/12 01:53:43;;;;;;;4.20;2.00;;;;;;;-3.12;100.00;100250.75;6090601;29;20539;-85
2023/03/12 01:56:46;;;;;;;7.93;2.33;;;;;;;-3.13;100.00;100251.66;6089939;29;20052;-85
2023/03/12 02:00:04;;;;;;;6.80;2.10;;;;;;;-3.12;100.00;100249.94;6079791;29;20059;-85
2023/03/12 02:03:14;;;;;;;3.25;2.05;;;;;;;-3.15;100.00;100243.25;6089062;29;20279;-85
2023/03/12 02:06:21;;;;;;;7.07;2.35;;;;;;;-3.11;100.00;100237.22;6074369;29;20050;-85
2023/03/12 02:09:24;;;;;;;4.03;2.25;;;;;;;-3.14;100.00;100222.13;6069296;29;20459;-85
2023/03/12 02:12:26;;;;;;;4.30;2.10;;;;;;;-3.14;100.00;100236.50;6092654;29;20048;-85
2023/03/12 02:15:28;;;;;;;4.05;1.88;;;;;;;-3.19;100.00;100235.78;6064355;29;20684;-85
2023/03/12 02:18:33;;;;;;;5.03;2.10;;;;;;;-3.23;100.00;100237.56;6088635;29;20580;-85
2023/03/12 02:21:37;;;;;;;3.45;2.22;;;;;;;-3.25;100.00;100230.03;6088844;29;20215;-85
2023/03/12 02:24:51;;;;;;;3.75;1.80;;;;;;;-3.23;100.00;100226.59;6086892;29;20138;-85
2023/03/12 02:27:54;;;;;;;4.03;2.13;;;;;;;-3.27;100.00;100225.88;6099971;29;20120;-85
2023/03/12 02:31:01;;;;;;;3.78;2.13;;;;;;;-3.26;100.00;100232.56;6086475;29;20079;-85
2023/03/12 02:34:03;;;;;;;4.63;1.90;;;;;;;-3.29;100.00;100236.03;6088451;29;20055;-85
2023/03/12 02:37:05;;;;;;;3.60;2.20;;;;;;;-3.32;100.00;100233.59;6092406;29;20040;-86
2023/03/12 02:40:22;;;;;;;4.10;1.88;;;;;;;-3.36;100.00;100234.53;6091337;29;20079;-85
2023/03/12 02:43:24;;;;;;;4.28;2.28;;;;;;;-3.39;100.00;100234.63;6085052;29;20103;-85
2023/03/12 02:46:29;;;;;;;3.38;2.40;;;;;;;-3.38;100.00;100238.81;6091433;29;20040;-85
2023/03/12 02:49:33;;;;;;;4.80;2.30;;;;;;;-3.38;100.00;100230.38;6072469;29;20053;-86
2023/03/12 02:52:36;;;;;;;3.08;1.90;;;;;;;-3.40;100.00;100227.91;6090253;29;20146;-85
2023/03/12 02:55:38;;;;;;;4.00;1.95;;;;;;;-3.40;100.00;100230.44;6090241;29;20040;-86
2023/03/12 02:58:41;;;;;;;4.85;2.17;;;;;;;-3.40;100.00;100232.97;6091585;29;20076;-85
2023/03/12 03:01:44;;;;;;;3.97;1.80;;;;;;;-3.40;100.00;100234.63;6083709;29;20285;-86
2023/03/12 03:04:46;;;;;;;3.22;2.30;;;;;;;-3.42;100.00;100232.16;6074765;29;20690;-85
2023/03/12 03:07:48;;;;;;;4.20;2.10;;;;;;;-3.42;100.00;100229.63;6072193;29;20547;-85
2023/03/12 03:10:51;;;;;;;3.28;2.08;;;;;;;-3.46;100.00;100228.88;6091457;29;20570;-85
2023/03/12 03:13:54;;;;;;;3.42;2.03;;;;;;;-3.47;100.00;100227.22;6085007;29;20052;-85
2023/03/12 03:16:56;;;;;;;5.70;2.42;;;;;;;-3.46;100.00;100233.94;6070256;29;20514;-85
2023/03/12 03:19:58;;;;;;;4.07;2.33;;;;;;;-3.43;100.00;100227.97;6091074;29;20048;-85
2023/03/12 03:23:00;;;;;;;3.70;2.20;;;;;;;-3.38;100.00;100235.44;6084757;29;20048;-85
2023/03/12 03:26:02;;;;;;;2.63;2.08;;;;;;;-3.39;100.00;100237.13;6087684;29;20048;-85
2023/03/12 03:29:05;;;;;;;5.32;2.20;;;;;;;-3.41;100.00;100236.34;6089715;29;20068;-85
2023/03/12 03:32:07;;;;;;;5.70;3.72;;;;;;;-3.40;100.00;100237.16;6086850;29;20533;-85
2023/03/12 03:35:14;;;;;;;4.35;2.40;;;;;;;-3.40;100.00;100234.63;6070980;29;20057;-85
2023/03/12 03:38:16;;;;;;;6.32;2.35;;;;;;;-3.41;100.00;100236.34;6092888;29;20044;-85
2023/03/12 03:41:20;;;;;;;5.35;2.20;;;;;;;-3.39;100.00;100231.25;6088942;29;20051;-85
2023/03/12 03:44:22;;;;;;;3.78;2.10;;;;;;;-3.39;100.00;100236.31;6090915;29;20040;-85
2023/03/12 03:47:25;;;;;;;6.30;2.10;;;;;;;-3.40;100.00;100232.97;6090516;29;20387;-85
2023/03/12 03:50:26;;;;;;;5.38;2.58;;;;;;;-3.39;100.00;100226.19;6089085;29;20052;-85
2023/03/12 03:53:28;;;;;;;4.93;2.15;;;;;;;-3.41;100.00;100233.81;6088460;29;20056;-85
2023/03/12 03:56:31;;;;;;;2.92;1.95;;;;;;;-3.43;100.00;100227.97;6081045;29;20507;-85
2023/03/12 03:59:36;;;;;;;5.38;2.30;;;;;;;-3.44;100.00;100233.91;6088882;29;20083;-85
2023/03/12 04:02:38;;;;;;;4.28;2.25;;;;;;;-3.45;100.00;100229.72;6088808;29;20107;-85
2023/03/12 04:05:44;;;;;;;3.47;2.17;;;;;;;-3.45;100.00;100227.19;6087117;29;20503;-85
2023/03/12 04:08:46;;;;;;;3.47;2.65;;;;;;;-3.43;100.00;100220.38;6088508;29;20166;-85
2023/03/12 04:11:50;;;;;;;3.63;2.35;;;;;;;-3.41;100.00;100230.47;6090115;29;20081;-85
2023/03/12 04:14:53;;;;;;;5.38;2.20;;;;;;;-3.43;100.00;100232.19;6091059;29;20047;-85
2023/03/12 04:17:55;;;;;;;3.25;2.20;;;;;;;-3.42;100.00;100231.34;6088127;29;20558;-85
2023/03/12 04:20:58;;;;;;;4.93;2.30;;;;;;;-3.37;100.00;100227.00;6088706;29;20057;-85
2023/03/12 04:23:59;;;;;;;4.90;1.77;;;;;;;-3.38;100.00;100230.38;6090356;29;20423;-85
2023/03/12 04:27:05;;;;;;;5.97;2.50;;;;;;;-3.39;100.00;100228.72;6083945;29;20044;-85
2023/03/12 04:30:09;;;;;;;5.07;2.35;;;;;;;-3.34;100.00;100232.78;6087367;29;20169;-85
2023/03/12 04:33:12;;;;;;;3.97;2.92;;;;;;;-3.32;100.00;100232.75;6084567;29;20076;-85
2023/03/12 04:36:15;;;;;;;4.88;2.30;;;;;;;-3.26;100.00;100230.88;6089733;29;20055;-85
2023/03/12 04:39:20;;;;;;;7.32;3.10;;;;;;;-3.22;100.00;100231.63;6090042;29;20080;-85
2023/03/12 04:42:25;;;;;;;4.28;2.67;;;;;;;-3.16;100.00;100228.09;6073654;29;20717;-85
2023/03/12 04:45:27;;;;;;;4.25;2.58;;;;;;;-3.13;100.00;100238.13;6086900;29;20044;-85
2023/03/12 04:48:29;;;;;;;5.75;2.22;;;;;;;-3.13;100.00;100233.94;6069695;29;20143;-85
2023/03/12 04:51:31;;;;;;;4.05;3.17;;;;;;;-3.10;100.00;100223.72;6080436;29;20044;-85
2023/03/12 04:54:36;;;;;;;3.83;2.97;;;;;;;-3.08;100.00;100226.19;6088058;29;20529;-85
2023/03/12 04:57:38;;;;;;;6.72;2.75;;;;;;;-3.07;100.00;100233.75;6087210;29;20621;-85
2023/03/12 05:00:41;;;;;;;4.03;2.80;;;;;;;-3.03;100.00;100229.44;6086793;29;20167;-85
2023/03/12 05:03:43;;;;;;;4.47;2.92;;;;;;;-2.99;100.00;100225.13;6089705;29;20557;-85
2023/03/12 05:06:45;;;;;;;6.38;3.50;;;;;;;-2.95;100.00;100231.75;6089514;29;20040;-85
2023/03/12 05:09:47;;;;;;;5.50;3.42;;;;;;;-2.89;100.00;100226.50;6092707;29;20390;-85
2023/03/12 05:12:49;;;;;;;4.30;2.85;;;;;;;-2.86;100.00;100227.25;6095921;29;20040;-85
2023/03/12 05:15:53;;;;;;;4.43;2.92;;;;;;;-2.82;100.00;100217.88;6092430;29;20434;-85
2023/03/12 05:18:55;;;;;;;4.82;2.92;;;;;;;-2.74;100.00;100222.72;6059744;29;20056;-85
2023/03/12 05:21:58;;;;;;;3.38;2.78;;;;;;;-2.68;100.00;100214.94;6074716;29;20067;-85
2023/03/12 05:25:02;;;;;;;4.18;2.80;;;;;;;-2.60;100.00;100213.00;6076352;29;20301;-85
2023/03/12 05:28:04;;;;;;;4.95;2.70;;;;;;;-2.56;100.00;100212.03;6079423;29;20103;-85
2023/03/12 05:31:09;;;;;;;4.07;2.63;;;;;;;-2.51;100.00;100205.13;6064091;29;20585;-85
2023/03/12 05:34:12;;;;;;;7.63;2.80;;;;;;;-2.46;100.00;100208.34;6076866;29;20052;-85
2023/03/12 05:37:17;;;;;;;4.60;2.65;;;;;;;-2.46;100.00;100210.91;6065281;29;20494;-85
2023/03/12 05:40:23;;;;;;;5.43;3.17;;;;;;;-2.46;100.00;100203.28;6087889;29;20519;-85
2023/03/12 05:43:26;;;;;;;4.88;3.03;;;;;;;-2.44;100.00;100198.16;6094210;29;20056;-85
2023/03/12 05:46:28;;;;;;;4.78;2.88;;;;;;;-2.41;100.00;100193.84;6093567;29;20514;-85
2023/03/12 05:49:31;;;;;;;7.90;3.00;;;;;;;-2.44;100.00;100190.56;6089672;29;20144;-85
2023/03/12 05:52:33;;;;;;;6.80;2.33;;;;;;;-2.45;100.00;100188.91;6093095;29;20044;-85
2023/03/12 05:55:37;;;;;;;5.72;2.67;;;;;;;-2.42;100.00;100186.28;6075302;29;20044;-85
2023/03/12 05:58:40;;;;;;;4.93;2.92;;;;;;;-2.46;100.00;100177.09;6091535;29;20387;-85
2023/03/12 06:01:42;;;;;;;3.60;2.60;;;;;;;-2.41;100.00;100182.84;6086933;29;20507;-85
2023/03/12 06:04:45;;;;;;;5.47;2.80;;;;;;;-2.35;100.00;100180.13;6079090;29;20052;-85
2023/03/12 06:07:47;;;;;;;4.68;2.38;;;;;;;-2.23;100.00;100177.22;6090844;29;20044;-85
2023/03/12 06:10:52;;;;;;;6.40;3.15;;;;;;;-2.12;100.00;100179.41;6081505;29;20056;-85
2023/03/12 06:13:53;;;;;;;4.43;2.67;;;;;;;-2.06;100.00;100181.75;6075872;29;20054;-85
2023/03/12 06:16:55;;;;;;;5.95;2.75;;;;;;;-1.98;100.00;100173.88;6090165;29;20044;-85
2023/03/12 06:19:57;;;;;;;6.40;2.67;;;;;;;-1.90;100.00;100168.56;6091548;29;20032;-85
2023/03/12 06:22:59;;;;;;;6.32;3.00;;;;;;;-1.80;100.00;100162.28;6088886;29;20756;-85
2023/03/12 06:26:02;;;;;;;4.45;2.90;;;;;;;-1.74;100.00;100157.00;6091871;29;20150;-85
2023/03/12 06:29:05;;;;;;;4.70;3.03;;;;;;;-1.65;100.00;100154.16;6090439;29;20055;-85
2023/03/12 06:32:07;;;;;;;8.63;3.10;;;;;;;-1.59;100.00;100148.03;6094250;29;20543;-85
2023/03/12 06:35:09;;;;;;;7.35;2.67;;;;;;;-1.48;100.00;100145.13;6092471;29;20047;-85
2023/03/12 06:38:11;;;;;;;3.65;2.85;;;;;;;-1.46;100.00;100144.19;6091979;29;20044;-85
2023/03/12 06:41:17;;;;;;;8.93;3.13;;;;;;;-1.42;100.00;100144.91;6092465;29;20040;-85
2023/03/12 06:44:20;;;;;;;4.60;2.95;;;;;;;-1.33;100.00;100149.66;6093709;29;20050;-85
2023/03/12 06:47:22;;;;;;;7.03;3.13;;;;;;;-1.20;100.00;100139.88;6079252;29;20052;-85
2023/03/12 06:50:24;;;;;;;4.55;2.90;;;;;;;-1.12;100.00;100141.28;6085214;29;20060;-85
2023/03/12 06:53:26;;;;;;;4.18;2.90;;;;;;;-1.05;100.00;100135.94;6082897;29;20067;-85
2023/03/12 06:56:29;;;;;;;8.45;3.17;;;;;;;-1.02;100.00;100140.91;6092236;29;20315;-85
2023/03/12 06:59:30;;;;;;;4.60;2.55;;;;;;;-0.98;100.00;100143.28;6095972;29;20160;-85
2023/03/12 07:02:32;;;;;;;4.70;3.20;;;;;;;-0.86;100.00;100124.22;6086709;29;20059;-85
2023/03/12 07:05:34;;;;;;;6.97;3.10;;;;;;;-0.72;100.00;100123.66;6089817;29;20164;-85
2023/03/12 07:08:36;;;;;;;4.30;2.90;;;;;;;-0.67;100.00;100130.25;6092288;29;20048;-85
2023/03/12 07:11:38;;;;;;;5.47;3.30;;;;;;;-0.53;100.00;100126.31;6094502;29;20051;-85
2023/03/12 07:14:39;;;;;;;3.95;3.03;;;;;;;-0.33;100.00;100122.97;6092990;29;20518;-85
2023/03/12 07:17:41;;;;;;;5.53;3.05;;;;;;;-0.17;100.00;100134.19;6091593;29;20044;-85
2023/03/12 07:20:46;;;;;;;4.43;2.85;;;;;;;-0.13;100.00;100122.16;6091064;29;20052;-85
2023/03/12 07:23:49;;;;;;;3.53;2.70;;;;;;;-0.03;100.00;100119.16;6088262;29;20336;-85
2023/03/12 07:26:50;;;;;;;4.18;2.33;;;;;;;0.16;100.00;100114.16;6091284;29;20047;-85
2023/03/12 07:29:52;;;;;;;4.13;2.42;;;;;;;0.43;100.00;100116.41;6091386;29;20048;-85
2023/03/12 07:32:54;;;;;;;2.80;2.40;;;;;;;0.67;100.00;100122.13;6087646;29;20052;-85
2023/03/12 07:35:56;;;;;;;5.50;2.30;;;;;;;0.76;100.00;100119.16;6091259;29;20048;-85
2023/03/12 07:38:58;;;;;;;3.80;2.63;;;;;;;0.77;100.00;100112.34;6092137;29;20048;-85
2023/03/12 07:42:00;;;;;;;5.15;3.15;;;;;;;0.74;100.00;100113.31;6089807;29;20164;-85
2023/03/12 07:45:04;;;;;;;5.97;2.60;;;;;;;0.78;100.00;100111.47;6079727;29;20192;-85
2023/03/12 07:48:07;;;;;;;5.45;2.47;;;;;;;0.89;100.00;100113.53;6090881;29;20618;-85
2023/03/12 07:51:09;;;;;;;4.95;2.78;;;;;;;1.10;100.00;100114.28;6089213;29;20134;-85
2023/03/12 07:54:12;;;;;;;3.97;2.35;;;;;;;1.35;100.00;100117.31;6090951;29;20044;-85
2023/03/12 07:57:13;;;;;;;5.10;2.53;;;;;;;1.61;100.00;100113.50;6090977;29;20044;-85
2023/03/12 08:00:16;;;;;;;6.45;2.38;;;;;;;1.75;100.00;100105.19;6089866;29;20040;-85
2023/03/12 08:03:18;;;;;;;5.43;2.47;;;;;;;1.86;100.00;100105.50;6091967;29;20367;-85
2023/03/12 08:06:20;;;;;;;3.63;2.35;;;;;;;1.94;100.00;100095.72;6090418;29;20511;-85
2023/03/12 08:09:22;;;;;;;13.32;3.45;;;;;;;2.14;100.00;100065.81;6091417;29;20068;-85
2023/03/12 08:12:24;;;;;;;6.32;3.13;;;;;;;2.30;100.00;100056.44;6095025;29;20047;-85
2023/03/12 08:15:26;;;;;;;3.70;2.45;;;;;;;2.47;100.00;100041.97;6088778;29;20470;-85
2023/03/12 08:18:28;;;;;;;4.57;2.20;;;;;;;2.61;100.00;100041.22;6087337;29;20274;-85
2023/03/12 08:21:30;;;;;;;5.28;2.13;;;;;;;2.61;100.00;100041.22;6088270;29;20047;-85
2023/03/12 08:24:32;;;;;;;3.97;2.20;;;;;;;2.49;100.00;100037.59;6088425;29;20051;-85
2023/03/12 08:27:37;;;;;;;6.65;2.08;;;;;;;2.39;100.00;100047.47;6088975;29;20447;-84
2023/03/12 08:30:38;;;;;;;4.20;2.40;;;;;;;2.36;100.00;100053.56;6089513;29;20044;-84
2023/03/12 08:33:42;;;;;;;7.03;2.08;;;;;;;2.40;100.00;100056.78;6088612;29;20044;-85
2023/03/12 08:36:44;;;;;;;4.47;1.80;;;;;;;2.47;100.00;100062.41;6090041;29;20100;-84
2023/03/12 08:39:46;;;;;;;7.88;2.00;;;;;;;2.52;100.00;100062.97;6089706;29;20048;-85
2023/03/12 08:42:47;;;;;;;5.25;2.15;;;;;;;2.65;100.00;100058.03;6091632;29;20040;-85
2023/03/12 08:46:00;;;;;;;4.38;1.92;;;;;;;2.85;100.00;100056.97;6097267;29;20631;-85
2023/03/12 08:49:02;;;;;;;5.20;2.00;;;;;;;2.93;100.00;100063.31;6094441;29;20044;-85
2023/03/12 08:52:04;;;;;;;3.40;2.10;;;;;;;2.82;100.00;100060.50;6094630;29;20044;-85
2023/03/12 08:55:06;;;;;;;3.55;2.15;;;;;;;2.76;100.00;100059.13;6093505;29;20079;-85
2023/03/12 08:58:08;;;;;;;3.40;1.95;;;;;;;2.77;100.00;100070.16;6094568;29;20529;-85
2023/03/12 09:01:12;;;;;;;2.38;1.88;;;;;;;2.73;100.00;100069.50;6095635;29;20040;-85
2023/03/12 09:04:15;;;;;;;5.50;2.15;;;;;;;2.70;100.00;100064.53;6089370;29;20084;-85
2023/03/12 09:07:18;;;;;;;5.22;2.65;;;;;;;2.77;100.00;100075.25;6093868;29;20513;-85
2023/03/12 09:10:20;;;;;;;4.85;2.10;;;;;;;2.93;100.00;100058.19;6091389;29;20108;-85
2023/03/12 09:13:22;;;;;;;4.68;2.25;;;;;;;3.13;100.00;100067.34;6097081;29;20180;-85
2023/03/12 09:16:25;;;;;;;4.45;2.28;;;;;;;3.40;100.00;100066.66;6090568;29;20055;-85
2023/03/12 09:19:27;;;;;;;6.00;2.33;;;;;;;3.61;100.00;100074.88;6091400;29;20040;-85
2023/03/12 09:22:29;;;;;;;3.55;2.03;;;;;;;3.69;100.00;100071.88;6092735;29;20056;-85
2023/03/12 09:25:31;;;;;;;3.10;2.10;;;;;;;3.51;100.00;100071.19;6092302;29;20040;-85
2023/03/12 09:28:33;;;;;;;2.83;1.70;;;;;;;3.49;100.00;100070.47;6093836;29;20147;-85
2023/03/12 09:31:35;;;;;;;6.95;1.73;;;;;;;3.70;100.00;100063.28;6088653;29;20388;-85
2023/03/12 09:34:37;;;;;;;3.65;1.92;;;;;;;3.90;100.00;100060.41;6090577;29;20033;-85
2023/03/12 09:37:39;;;;;;;2.95;1.67;;;;;;;4.07;100.00;100044.88;6094121;29;20243;-86
2023/03/12 09:40:46;;;;;;;4.20;1.67;;;;;;;4.33;100.00;100034.78;6089050;29;20036;-86
2023/03/12 09:43:59;;;;;;;3.75;1.63;;;;;;;4.54;100.00;100033.44;6093180;29;20491;-86
2023/03/12 09:47:08;;;;;;;3.40;1.90;;;;;;;4.64;100.00;100040.56;6092842;29;20040;-86
2023/03/12 09:50:32;;;;;;;3.88;1.90;;;;;;;4.79;100.00;100019.09;6084773;29;20047;-86
2023/03/12 09:53:50;;;;;;;3.38;1.80;;;;;;;4.64;100.00;100000.38;6088359;29;20052;-86
2023/03/12 09:56:57;;;;;;;2.70;1.77;;;;;;;4.52;100.00;99980.63;6090330;29;20051;-86
2023/03/12 09:59:59;;;;;;;2.03;1.80;;;;;;;4.38;100.00;99973.81;6087277;29;20430;-85
2023/03/12 10:03:38;;;;;;;3.88;2.08;;;;;;;4.47;100.00;99977.53;6089284;29;20115;-85
2023/03/12 10:07:00;;;;;;;4.70;1.65;;;;;;;4.58;100.00;99975.13;6091411;29;20055;-85
2023/03/12 10:10:31;;;;;;;5.10;2.30;;;;;;;4.94;100.00;99982.25;6090995;29;20518;-85
2023/03/12 10:13:33;;;;;;;;;;;;;;;5.15;100.00;99981.75;6102415;29;20044;-85
2023/03/12 10:16:50;;;;;;;6.60;2.38;;;;;;;5.35;100.00;99978.72;6081100;29;19934;-85
2023/03/12 10:20:24;;;;;;;6.05;2.10;;;;;;;5.55;100.00;99984.28;6099683;29;20288;-85
2023/03/12 10:24:04;;;;;;;3.80;1.73;;;;;;;5.77;100.00;99966.50;6091111;29;20107;-85
2023/03/12 10:27:14;;;;;;;4.78;2.42;;;;;;;5.63;100.00;99966.59;6093451;29;20052;-86
2023/03/12 10:30:24;;;;;;;6.78;3.05;;;;;;;5.60;100.00;99965.06;6093705;29;20111;-85
2023/03/12 10:33:55;;;;;;;4.65;2.45;;;;;;;5.61;100.00;99960.72;6093411;29;20111;-85
2023/03/12 10:37:31;;;;;;;5.03;2.63;;;;;;;5.55;100.00;99950.91;6084237;29;20054;-85
2023/03/12 10:40:36;;;;;;;5.60;2.40;;;;;;;5.43;100.00;99937.13;6062139;29;20060;-85
2023/03/12 10:43:38;;;;;;;5.28;2.05;;;;;;;5.24;100.00;99932.41;6066304;29;20040;-86
2023/03/12 10:47:40;;;;;;;5.80;2.15;;;;;;;4.94;100.00;99930.09;6076119;29;20056;-86
2023/03/12 10:51:02;;;;;;;4.07;1.70;;;;;;;4.65;100.00;99934.56;5972747;29;20604;-85
2023/03/12 10:54:22;;;;;;;5.20;2.22;;;;;;;4.27;100.00;99937.78;5973025;29;20121;-86
2023/03/12 10:57:39;;;;;;;3.90;2.22;;;;;;;3.95;100.00;99939.75;5972941;29;20054;-85
2023/03/12 11:00:57;;;;;;;2.35;1.80;;;;;;;3.71;100.00;99929.28;5972688;29;20083;-86
2023/03/12 11:04:20;;;;;;;3.78;1.98;;;;;;;3.82;100.00;99932.00;5973142;29;20530;-86
2023/03/12 11:07:34;;;;;;;3.50;2.20;;;;;;;3.76;100.00;99932.38;5972279;29;20568;-85
2023/03/12 11:10:43;;;;;;;3.70;2.10;;;;;;;3.60;100.00;99935.88;5962028;29;20069;-86
2023/03/12 11:14:06;;;;;;;2.97;2.10;;;;;;;3.17;100.00;99933.25;5973582;29;20142;-85
2023/03/12 11:17:22;;;;;;;7.22;2.33;;;;;;;2.84;100.00;99927.53;5981608;29;20050;-85
2023/03/12 11:20:28;;;;;;;4.93;2.30;;;;;;;2.62;100.00;99925.34;6013393;29;20052;-84
2023/03/12 11:23:32;;;;;;;4.88;2.70;;;;;;;2.54;100.00;99918.94;6088903;29;20180;-84
2023/03/12 11:26:53;;;;;;;6.43;2.50;;;;;;;2.57;100.00;99907.72;6089878;29;20540;-84
2023/03/12 11:29:55;;;;;;;;;;;;;;;2.59;100.00;99905.91;6075688;29;20463;-84
2023/03/12 11:32:57;;;;;;;6.05;2.80;;;;;;;2.53;100.00;99898.56;6089631;29;19934;-84
2023/03/12 11:36:14;;;;;;;4.72;2.47;;;;;;;2.53;100.00;99898.56;6088362;29;20188;-85
2023/03/12 11:39:38;;;;;;;5.53;2.63;;;;;;;2.55;100.00;99889.09;6088536;29;20111;-84
2023/03/12 11:42:51;;;;;;;7.68;2.80;;;;;;;2.42;100.00;99877.94;6087743;29;20068;-84
2023/03/12 11:46:02;;;;;;;;;;;;;;;2.39;100.00;99867.88;6083171;29;20490;-85
2023/03/12 11:49:07;;;;;;;4.63;2.53;;;;;;;2.31;100.00;99861.47;6091894;29;19930;-85
2023/03/12 11:52:43;;;;;;;5.93;3.25;;;;;;;2.39;100.00;99853.38;6090112;29;20084;-85
2023/03/12 11:56:08;;;;;;;3.90;2.70;;;;;;;2.52;100.00;99848.41;6102635;29;20134;-85
2023/03/12 11:59:35;;;;;;;5.32;3.00;;;;;;;2.59;100.00;99847.16;6065988;29;20056;-85
2023/03/12 12:03:02;;;;;;;6.03;3.03;;;;;;;2.41;100.00;99848.16;6087009;29;20036;-85
2023/03/12 12:06:14;;;;;;;5.72;3.25;;;;;;;2.29;100.00;99845.41;6096009;29;20548;-85
2023/03/12 12:09:49;;;;;;;3.88;2.80;;;;;;;2.19;100.00;99833.22;6089955;29;20051;-85
2023/03/12 12:13:09;;;;;;;5.47;2.83;;;;;;;2.14;100.00;99826.66;6084940;29;20509;-85
2023/03/12 12:16:41;;;;;;;5.93;2.92;;;;;;;2.10;100.00;99821.78;6090031;29;20052;-85
2023/03/12 12:19:49;;;;;;;4.40;2.92;;;;;;;2.07;100.00;99812.56;6089642;29;20048;-85
2023/03/12 12:23:19;;;;;;;6.13;2.90;;;;;;;2.09;100.00;99813.31;6091310;29;20072;-85
2023/03/12 12:26:49;;;;;;;5.45;3.00;;;;;;;2.14;100.00;99807.97;6043159;29;20109;-85
2023/03/12 12:30:25;;;;;;;6.53;3.22;;;;;;;2.30;100.00;99792.59;6045007;29;20420;-86
2023/03/12 12:34:01;;;;;;;3.50;2.63;;;;;;;2.32;100.00;99793.34;6059241;29;20044;-86
2023/03/12 12:37:37;;;;;;;5.22;3.22;;;;;;;2.34;100.00;99802.56;6056984;29;20067;-86
2023/03/12 12:40:54;;;;;;;5.00;3.15;;;;;;;2.36;100.00;99800.75;6049790;29;20056;-87
2023/03/12 12:44:00;;;;;;;6.75;2.67;;;;;;;2.29;100.00;99799.44;6053816;29;20163;-86
2023/03/12 12:47:05;;;;;;;3.38;3.05;;;;;;;2.23;100.00;99791.28;6054599;29;20172;-87
2023/03/12 12:50:40;;;;;;;4.50;3.25;;;;;;;2.24;100.00;99786.13;6043801;29;20072;-87
2023/03/12 12:53:46;;;;;;;6.70;3.28;;;;;;;2.22;100.00;99793.03;6054408;29;20096;-87
2023/03/12 12:56:55;;;;;;;4.55;2.80;;;;;;;2.13;100.00;99781.59;6058727;29;20619;-87
2023/03/12 13:00:22;;;;;;;5.15;3.15;;;;;;;2.08;100.00;99778.47;6056294;29;20068;-89
2023/03/12 13:03:26;;;;;;;4.88;3.22;;;;;;;1.91;100.00;99774.31;6071630;29;20060;-88
2023/03/12 13:06:48;;;;;;;5.53;3.25;;;;;;;1.89;100.00;99780.44;6088979;29;20044;-89
2023/03/12 13:09:52;;;;;;;3.92;3.10;;;;;;;1.91;100.00;99781.13;6087083;29;20059;-89
2023/03/12 13:12:55;;;;;;;5.50;3.55;;;;;;;1.92;100.00;99787.91;6090005;29;20479;-89
2023/03/12 13:16:15;;;;;;;7.95;3.60;;;;;;;1.87;100.00;99785.59;6088166;29;20107;-89
2023/03/12 13:19:24;;;;;;;6.22;3.38;;;;;;;2.06;100.00;99759.06;6083824;29;20175;-89
2023/03/12 13:22:51;;;;;;;4.90;3.35;;;;;;;2.21;100.00;99749.69;6080479;29;20044;-89
2023/03/12 13:26:07;;;;;;;5.45;3.65;;;;;;;2.32;100.00;99747.38;6083008;29;20051;-89
2023/03/12 13:29:35;;;;;;;3.90;3.42;;;;;;;2.27;100.00;99752.75;6089488;29;20048;-89
2023/03/12 13:32:58;;;;;;;5.40;3.90;;;;;;;2.36;100.00;99741.16;6087452;29;20047;-89
2023/03/12 13:36:15;;;;;;;4.00;3.60;;;;;;;2.63;100.00;99746.41;6090460;29;20051;-90
2023/03/12 13:39:36;;;;;;;5.20;3.40;;;;;;;2.73;100.00;99742.41;6089736;29;20059;-89
2023/03/12 13:42:40;;;;;;;6.20;3.33;;;;;;;2.63;100.00;99743.84;6092123;29;20050;-89
2023/03/12 13:46:06;;;;;;;3.80;3.35;;;;;;;2.49;100.00;99739.56;6084091;29;20051;-90
2023/03/12 13:49:11;;;;;;;4.00;3.35;;;;;;;2.46;100.00;99728.69;6092788;29;20392;-90
2023/03/12 13:52:22;;;;;;;4.18;3.78;;;;;;;2.46;100.00;99719.31;6091959;29;20063;-89
2023/03/12 13:55:27;;;;;;;4.83;4.37;;;;;;;2.51;100.00;99727.53;6086998;29;20427;-90
2023/03/12 13:58:31;;;;;;;4.00;3.63;;;;;;;2.51;100.00;99719.88;6085437;29;20069;-90
2023/03/12 14:01:41;;;;;;;5.53;3.65;;;;;;;2.53;100.00;99712.09;6092146;29;20053;-90
2023/03/12 14:04:44;;;;;;;4.88;3.80;;;;;;;2.62;100.00;99705.63;6097141;29;20409;-90
2023/03/12 14:07:47;;;;;;;5.78;3.75;;;;;;;2.64;100.00;99707.19;6091957;29;20040;-90
2023/03/12 14:11:05;;;;;;;6.63;4.47;;;;;;;2.62;100.00;99701.34;6092947;29;20403;-90
2023/03/12 14:14:40;;;;;;;4.55;3.75;;;;;;;2.60;100.00;99703.16;6091975;29;20040;-92
2023/03/12 14:17:43;;;;;;;4.30;3.80;;;;;;;2.59;100.00;99699.78;6093178;29;20890;-91
2023/03/12 14:20:53;;;;;;;4.40;3.53;;;;;;;2.63;100.00;99702.16;6091721;29;20052;-90
2023/03/12 14:23:57;;;;;;;;;;;;;;;2.64;100.00;99702.06;6094521;29;20561;-90
2023/03/12 14:27:00;;;;;;;5.95;3.38;;;;;;;2.68;100.00;99700.97;6092332;29;19958;-90
2023/03/12 14:30:20;;;;;;;3.35;3.00;;;;;;;2.75;100.00;99699.69;6081285;29;20044;-91